sensor_id;sensor_type;location;lat;lon;timestamp;P1;durP1;ratioP1;P2;durP2;ratioP2
12631;SDS011;6381;45.748;12.106;2023-02-11T00:01:46;30.17;;;24.70;;
12631;SDS011;6381;45.748;12.106;2023-02-11T00:04:15;27.57;;;24.60;;
12631;SDS011;6381;45.748;12.106;2023-02-11T00:06:45;31.07;;;25.80;;
12631;SDS011;6381;45.748;12.106;2023-02-11T00:09:14;28.57;;;25.53;;
12631;SDS011;6381;45.748;12.106;2023-02-11T00:11:44;32.43;;;25.80;;
12631;SDS011;6381;45.748;12.106;2023-02-11T00:14:13;37.90;;;29.87;;
12631;SDS011;6381;45.748;12.106;2023-02-11T00:16:42;35.20;;;30.50;;
12631;SDS011;6381;45.748;12.106;2023-02-11T00:19:13;36.83;;;29.90;;
12631;SDS011;6381;45.748;12.106;2023-02-11T00:21:43;31.67;;;28.33;;
12631;SDS011;6381;45.748;12.106;2023-02-11T00:24:12;35.20;;;28.37;;
12631;SDS011;6381;45.748;12.106;2023-02-11T00:26:42;45.13;;;34.37;;
12631;SDS011;6381;45.748;12.106;2023-02-11T00:29:12;40.10;;;31.30;;
12631;SDS011;6381;45.748;12.106;2023-02-11T00:31:41;40.33;;;31.13;;
12631;SDS011;6381;45.748;12.106;2023-02-11T00:34:11;43.40;;;33.23;;
12631;SDS011;6381;45.748;12.106;2023-02-11T00:36:42;63.47;;;46.60;;
12631;SDS011;6381;45.748;12.106;2023-02-11T00:39:13;65.57;;;45.73;;
12631;SDS011;6381;45.748;12.106;2023-02-11T00:41:43;47.37;;;35.33;;
12631;SDS011;6381;45.748;12.106;2023-02-11T00:44:12;38.20;;;29.87;;
12631;SDS011;6381;45.748;12.106;2023-02-11T00:46:41;43.00;;;31.43;;
12631;SDS011;6381;45.748;12.106;2023-02-11T00:49:11;32.50;;;26.80;;
12631;SDS011;6381;45.748;12.106;2023-02-11T00:51:42;34.47;;;26.33;;
12631;SDS011;6381;45.748;12.106;2023-02-11T00:54:12;32.43;;;26.03;;
12631;SDS011;6381;45.748;12.106;2023-02-11T00:56:42;37.90;;;29.80;;
12631;SDS011;6381;45.748;12.106;2023-02-11T00:59:11;36.33;;;29.83;;
12631;SDS011;6381;45.748;12.106;2023-02-11T01:01:42;24.33;;;21.83;;
12631;SDS011;6381;45.748;12.106;2023-02-11T01:04:12;25.23;;;22.30;;
12631;SDS011;6381;45.748;12.106;2023-02-11T01:06:43;28.57;;;21.73;;
12631;SDS011;6381;45.748;12.106;2023-02-11T01:09:13;39.40;;;34.13;;
12631;SDS011;6381;45.748;12.106;2023-02-11T01:11:42;33.60;;;29.00;;
12631;SDS011;6381;45.748;12.106;2023-02-11T01:14:12;29.03;;;25.87;;
12631;SDS011;6381;45.748;12.106;2023-02-11T01:16:43;27.93;;;21.47;;
12631;SDS011;6381;45.748;12.106;2023-02-11T01:19:12;25.13;;;19.57;;
12631;SDS011;6381;45.748;12.106;2023-02-11T01:21:46;20.47;;;18.43;;
12631;SDS011;6381;45.748;12.106;2023-02-11T01:24:15;24.20;;;19.27;;
12631;SDS011;6381;45.748;12.106;2023-02-11T01:26:45;23.07;;;20.57;;
12631;SDS011;6381;45.748;12.106;2023-02-11T01:29:14;21.57;;;19.37;;
12631;SDS011;6381;45.748;12.106;2023-02-11T01:31:44;21.30;;;19.10;;
12631;SDS011;6381;45.748;12.106;2023-02-11T01:34:14;22.10;;;19.77;;
12631;SDS011;6381;45.748;12.106;2023-02-11T01:36:43;32.17;;;24.63;;
12631;SDS011;6381;45.748;12.106;2023-02-11T01:39:14;46.43;;;33.80;;
12631;SDS011;6381;45.748;12.106;2023-02-11T01:41:45;45.37;;;33.27;;
12631;SDS011;6381;45.748;12.106;2023-02-11T01:44:22;28.73;;;23.20;;
12631;SDS011;6381;45.748;12.106;2023-02-11T01:46:53;25.80;;;22.53;;
12631;SDS011;6381;45.748;12.106;2023-02-11T01:49:24;21.63;;;19.37;;
12631;SDS011;6381;45.748;12.106;2023-02-11T01:51:57;21.97;;;19.40;;
12631;SDS011;6381;45.748;12.106;2023-02-11T01:54:30;23.50;;;20.20;;
12631;SDS011;6381;45.748;12.106;2023-02-11T01:57:21;25.70;;;22.83;;
12631;SDS011;6381;45.748;12.106;2023-02-11T01:59:55;24.57;;;21.10;;
12631;SDS011;6381;45.748;12.106;2023-02-11T02:02:41;32.47;;;24.93;;
12631;SDS011;6381;45.748;12.106;2023-02-11T02:05:17;39.77;;;28.87;;
12631;SDS011;6381;45.748;12.106;2023-02-11T02:07:55;33.73;;;26.30;;
12631;SDS011;6381;45.748;12.106;2023-02-11T02:10:30;28.03;;;23.23;;
12631;SDS011;6381;45.748;12.106;2023-02-11T02:13:03;33.47;;;27.40;;
12631;SDS011;6381;45.748;12.106;2023-02-11T02:15:33;25.97;;;22.10;;
12631;SDS011;6381;45.748;12.106;2023-02-11T02:18:17;23.53;;;20.97;;
12631;SDS011;6381;45.748;12.106;2023-02-11T02:24:14;37.83;;;30.67;;
12631;SDS011;6381;45.748;12.106;2023-02-11T02:29:56;35.70;;;28.67;;
12631;SDS011;6381;45.748;12.106;2023-02-11T02:35:52;21.53;;;18.87;;
12631;SDS011;6381;45.748;12.106;2023-02-11T02:38:31;21.20;;;19.10;;
12631;SDS011;6381;45.748;12.106;2023-02-11T02:41:05;21.97;;;19.60;;
12631;SDS011;6381;45.748;12.106;2023-02-11T02:43:39;23.90;;;20.53;;
12631;SDS011;6381;45.748;12.106;2023-02-11T02:46:11;21.57;;;19.27;;
12631;SDS011;6381;45.748;12.106;2023-02-11T02:48:44;21.33;;;18.63;;
12631;SDS011;6381;45.748;12.106;2023-02-11T02:51:19;21.37;;;19.03;;
12631;SDS011;6381;45.748;12.106;2023-02-11T02:54:19;21.40;;;18.63;;
12631;SDS011;6381;45.748;12.106;2023-02-11T02:57:17;19.70;;;17.70;;
12631;SDS011;6381;45.748;12.106;2023-02-11T03:00:00;19.07;;;17.13;;
12631;SDS011;6381;45.748;12.106;2023-02-11T03:02:41;20.30;;;17.10;;
12631;SDS011;6381;45.748;12.106;2023-02-11T03:05:22;19.20;;;17.20;;
12631;SDS011;6381;45.748;12.106;2023-02-11T03:07:59;18.70;;;16.73;;
12631;SDS011;6381;45.748;12.106;2023-02-11T03:10:36;17.03;;;15.33;;
12631;SDS011;6381;45.748;12.106;2023-02-11T03:13:09;19.13;;;16.90;;
12631;SDS011;6381;45.748;12.106;2023-02-11T03:15:40;17.27;;;15.47;;
12631;SDS011;6381;45.748;12.106;2023-02-11T03:18:12;17.23;;;15.23;;
12631;SDS011;6381;45.748;12.106;2023-02-11T03:20:46;16.80;;;15.07;;
12631;SDS011;6381;45.748;12.106;2023-02-11T03:23:20;17.53;;;15.23;;
12631;SDS011;6381;45.748;12.106;2023-02-11T03:25:54;16.37;;;14.67;;
12631;SDS011;6381;45.748;12.106;2023-02-11T03:28:28;19.20;;;15.63;;
12631;SDS011;6381;45.748;12.106;2023-02-11T03:31:05;16.00;;;14.50;;
12631;SDS011;6381;45.748;12.106;2023-02-11T03:33:42;17.87;;;16.17;;
12631;SDS011;6381;45.748;12.106;2023-02-11T03:36:23;18.53;;;15.90;;
12631;SDS011;6381;45.748;12.106;2023-02-11T03:38:56;16.90;;;14.60;;
12631;SDS011;6381;45.748;12.106;2023-02-11T03:41:27;16.93;;;15.33;;
12631;SDS011;6381;45.748;12.106;2023-02-11T03:43:59;16.83;;;15.20;;
12631;SDS011;6381;45.748;12.106;2023-02-11T03:46:30;17.10;;;15.40;;
12631;SDS011;6381;45.748;12.106;2023-02-11T03:49:05;17.60;;;15.33;;
12631;SDS011;6381;45.748;12.106;2023-02-11T03:51:40;16.43;;;14.73;;
12631;SDS011;6381;45.748;12.106;2023-02-11T03:54:12;17.70;;;15.90;;
12631;SDS011;6381;45.748;12.106;2023-02-11T03:56:45;16.83;;;15.13;;
12631;SDS011;6381;45.748;12.106;2023-02-11T03:59:20;16.70;;;15.10;;
12631;SDS011;6381;45.748;12.106;2023-02-11T04:01:50;16.97;;;15.17;;
12631;SDS011;6381;45.748;12.106;2023-02-11T04:04:19;16.53;;;15.03;;
12631;SDS011;6381;45.748;12.106;2023-02-11T04:06:50;17.57;;;15.67;;
12631;SDS011;6381;45.748;12.106;2023-02-11T04:09:20;18.37;;;15.57;;
12631;SDS011;6381;45.748;12.106;2023-02-11T04:11:49;16.37;;;14.77;;
12631;SDS011;6381;45.748;12.106;2023-02-11T04:14:18;17.73;;;15.87;;
12631;SDS011;6381;45.748;12.106;2023-02-11T04:16:48;19.23;;;16.90;;
12631;SDS011;6381;45.748;12.106;2023-02-11T04:19:17;20.30;;;18.20;;
12631;SDS011;6381;45.748;12.106;2023-02-11T04:21:46;21.00;;;18.77;;
12631;SDS011;6381;45.748;12.106;2023-02-11T04:24:17;20.20;;;18.03;;
12631;SDS011;6381;45.748;12.106;2023-02-11T04:26:46;18.57;;;16.77;;
12631;SDS011;6381;45.748;12.106;2023-02-11T04:29:16;17.63;;;15.83;;
12631;SDS011;6381;45.748;12.106;2023-02-11T04:31:45;15.97;;;14.37;;
12631;SDS011;6381;45.748;12.106;2023-02-11T04:34:15;15.37;;;13.87;;
12631;SDS011;6381;45.748;12.106;2023-02-11T04:36:44;15.63;;;14.07;;
12631;SDS011;6381;45.748;12.106;2023-02-11T04:39:18;18.43;;;16.50;;
12631;SDS011;6381;45.748;12.106;2023-02-11T04:41:47;24.10;;;20.43;;
12631;SDS011;6381;45.748;12.106;2023-02-11T04:44:16;21.87;;;19.47;;
12631;SDS011;6381;45.748;12.106;2023-02-11T04:46:46;18.00;;;16.20;;
12631;SDS011;6381;45.748;12.106;2023-02-11T04:49:16;19.07;;;17.17;;
12631;SDS011;6381;45.748;12.106;2023-02-11T04:51:45;19.17;;;16.80;;
12631;SDS011;6381;45.748;12.106;2023-02-11T04:54:15;17.50;;;15.77;;
12631;SDS011;6381;45.748;12.106;2023-02-11T04:56:46;17.90;;;15.90;;
12631;SDS011;6381;45.748;12.106;2023-02-11T04:59:17;15.80;;;14.23;;
12631;SDS011;6381;45.748;12.106;2023-02-11T05:01:46;14.17;;;12.77;;
12631;SDS011;6381;45.748;12.106;2023-02-11T05:04:16;14.97;;;13.50;;
12631;SDS011;6381;45.748;12.106;2023-02-11T05:06:45;14.07;;;12.77;;
12631;SDS011;6381;45.748;12.106;2023-02-11T05:09:15;16.17;;;12.90;;
12631;SDS011;6381;45.748;12.106;2023-02-11T05:11:46;14.77;;;13.27;;
12631;SDS011;6381;45.748;12.106;2023-02-11T05:14:15;14.03;;;12.63;;
12631;SDS011;6381;45.748;12.106;2023-02-11T05:16:44;14.23;;;12.60;;
12631;SDS011;6381;45.748;12.106;2023-02-11T05:19:14;15.17;;;13.67;;
12631;SDS011;6381;45.748;12.106;2023-02-11T05:21:43;16.03;;;14.43;;
12631;SDS011;6381;45.748;12.106;2023-02-11T05:24:28;15.80;;;13.77;;
12631;SDS011;6381;45.748;12.106;2023-02-11T05:26:59;17.73;;;15.93;;
12631;SDS011;6381;45.748;12.106;2023-02-11T05:29:28;18.27;;;16.20;;
12631;SDS011;6381;45.748;12.106;2023-02-11T05:31:58;18.43;;;16.53;;
12631;SDS011;6381;45.748;12.106;2023-02-11T05:34:27;17.43;;;15.23;;
12631;SDS011;6381;45.748;12.106;2023-02-11T05:36:56;16.47;;;14.73;;
12631;SDS011;6381;45.748;12.106;2023-02-11T05:39:27;19.10;;;16.07;;
12631;SDS011;6381;45.748;12.106;2023-02-11T05:41:57;32.17;;;25.37;;
12631;SDS011;6381;45.748;12.106;2023-02-11T05:44:28;32.60;;;24.13;;
12631;SDS011;6381;45.748;12.106;2023-02-11T05:46:57;30.97;;;23.20;;
12631;SDS011;6381;45.748;12.106;2023-02-11T05:49:26;19.93;;;16.50;;
12631;SDS011;6381;45.748;12.106;2023-02-11T05:51:56;16.47;;;14.50;;
12631;SDS011;6381;45.748;12.106;2023-02-11T05:54:25;16.90;;;15.13;;
12631;SDS011;6381;45.748;12.106;2023-02-11T05:56:55;16.07;;;14.37;;
12631;SDS011;6381;45.748;12.106;2023-02-11T05:59:25;18.27;;;16.20;;
12631;SDS011;6381;45.748;12.106;2023-02-11T06:01:55;22.23;;;14.80;;
12631;SDS011;6381;45.748;12.106;2023-02-11T06:04:24;20.03;;;15.50;;
12631;SDS011;6381;45.748;12.106;2023-02-11T06:06:54;16.50;;;14.73;;
12631;SDS011;6381;45.748;12.106;2023-02-11T06:09:23;16.07;;;13.80;;
12631;SDS011;6381;45.748;12.106;2023-02-11T06:11:53;15.37;;;13.77;;
12631;SDS011;6381;45.748;12.106;2023-02-11T06:14:22;14.67;;;13.13;;
12631;SDS011;6381;45.748;12.106;2023-02-11T06:16:53;16.07;;;12.93;;
12631;SDS011;6381;45.748;12.106;2023-02-11T06:19:22;14.03;;;12.60;;
12631;SDS011;6381;45.748;12.106;2023-02-11T06:21:52;16.43;;;14.10;;
12631;SDS011;6381;45.748;12.106;2023-02-11T06:24:23;15.83;;;13.93;;
12631;SDS011;6381;45.748;12.106;2023-02-11T06:27:12;20.23;;;14.97;;
12631;SDS011;6381;45.748;12.106;2023-02-11T06:29:41;17.87;;;15.23;;
12631;SDS011;6381;45.748;12.106;2023-02-11T06:32:13;20.93;;;16.60;;
12631;SDS011;6381;45.748;12.106;2023-02-11T06:35:03;18.53;;;15.70;;
12631;SDS011;6381;45.748;12.106;2023-02-11T06:37:33;18.73;;;16.83;;
12631;SDS011;6381;45.748;12.106;2023-02-11T06:40:02;21.10;;;16.83;;
12631;SDS011;6381;45.748;12.106;2023-02-11T06:42:32;21.03;;;15.33;;
12631;SDS011;6381;45.748;12.106;2023-02-11T06:45:02;16.70;;;14.90;;
12631;SDS011;6381;45.748;12.106;2023-02-11T06:47:35;19.67;;;14.97;;
12631;SDS011;6381;45.748;12.106;2023-02-11T06:50:05;18.77;;;16.67;;
12631;SDS011;6381;45.748;12.106;2023-02-11T06:52:36;17.50;;;15.60;;
12631;SDS011;6381;45.748;12.106;2023-02-11T06:55:05;20.30;;;16.50;;
12631;SDS011;6381;45.748;12.106;2023-02-11T06:57:35;20.10;;;17.70;;
12631;SDS011;6381;45.748;12.106;2023-02-11T07:00:05;22.20;;;19.90;;
12631;SDS011;6381;45.748;12.106;2023-02-11T07:02:36;20.40;;;18.20;;
12631;SDS011;6381;45.748;12.106;2023-02-11T07:05:06;19.80;;;17.70;;
12631;SDS011;6381;45.748;12.106;2023-02-11T07:07:36;22.07;;;17.23;;
12631;SDS011;6381;45.748;12.106;2023-02-11T07:10:05;32.90;;;23.57;;
12631;SDS011;6381;45.748;12.106;2023-02-11T07:12:35;26.73;;;19.50;;
12631;SDS011;6381;45.748;12.106;2023-02-11T07:15:05;22.33;;;17.40;;
12631;SDS011;6381;45.748;12.106;2023-02-11T07:17:35;19.67;;;17.67;;
12631;SDS011;6381;45.748;12.106;2023-02-11T07:20:06;19.80;;;17.70;;
12631;SDS011;6381;45.748;12.106;2023-02-11T07:22:38;20.90;;;18.70;;
12631;SDS011;6381;45.748;12.106;2023-02-11T07:25:07;17.93;;;16.10;;
12631;SDS011;6381;45.748;12.106;2023-02-11T07:27:37;17.97;;;16.03;;
12631;SDS011;6381;45.748;12.106;2023-02-11T07:30:06;21.97;;;17.60;;
12631;SDS011;6381;45.748;12.106;2023-02-11T07:32:38;19.23;;;17.07;;
12631;SDS011;6381;45.748;12.106;2023-02-11T07:35:07;21.07;;;16.73;;
12631;SDS011;6381;45.748;12.106;2023-02-11T07:37:37;23.17;;;19.70;;
12631;SDS011;6381;45.748;12.106;2023-02-11T07:40:08;22.00;;;18.03;;
12631;SDS011;6381;45.748;12.106;2023-02-11T07:42:38;22.10;;;17.70;;
12631;SDS011;6381;45.748;12.106;2023-02-11T07:45:07;19.83;;;14.33;;
12631;SDS011;6381;45.748;12.106;2023-02-11T07:47:38;22.00;;;14.63;;
12631;SDS011;6381;45.748;12.106;2023-02-11T07:50:09;24.53;;;15.07;;
12631;SDS011;6381;45.748;12.106;2023-02-11T07:52:38;19.63;;;14.97;;
12631;SDS011;6381;45.748;12.106;2023-02-11T07:55:07;21.07;;;15.33;;
12631;SDS011;6381;45.748;12.106;2023-02-11T07:57:37;21.93;;;16.57;;
12631;SDS011;6381;45.748;12.106;2023-02-11T08:00:07;19.73;;;16.47;;
12631;SDS011;6381;45.748;12.106;2023-02-11T08:02:39;16.80;;;14.40;;
12631;SDS011;6381;45.748;12.106;2023-02-11T08:05:08;15.23;;;13.63;;
12631;SDS011;6381;45.748;12.106;2023-02-11T08:07:38;14.67;;;13.07;;
12631;SDS011;6381;45.748;12.106;2023-02-11T08:10:07;14.93;;;12.77;;
12631;SDS011;6381;45.748;12.106;2023-02-11T08:12:37;14.23;;;12.37;;
12631;SDS011;6381;45.748;12.106;2023-02-11T08:15:06;12.90;;;11.37;;
12631;SDS011;6381;45.748;12.106;2023-02-11T08:17:36;14.33;;;12.00;;
12631;SDS011;6381;45.748;12.106;2023-02-11T08:20:07;15.67;;;11.97;;
12631;SDS011;6381;45.748;12.106;2023-02-11T08:22:37;13.73;;;11.53;;
12631;SDS011;6381;45.748;12.106;2023-02-11T08:25:07;13.37;;;11.73;;
12631;SDS011;6381;45.748;12.106;2023-02-11T08:27:36;13.60;;;12.20;;
12631;SDS011;6381;45.748;12.106;2023-02-11T08:30:06;16.67;;;12.43;;
12631;SDS011;6381;45.748;12.106;2023-02-11T08:32:36;13.50;;;11.90;;
12631;SDS011;6381;45.748;12.106;2023-02-11T08:35:07;12.80;;;11.50;;
12631;SDS011;6381;45.748;12.106;2023-02-11T08:37:38;14.30;;;11.57;;
12631;SDS011;6381;45.748;12.106;2023-02-11T08:40:08;13.43;;;11.67;;
12631;SDS011;6381;45.748;12.106;2023-02-11T08:42:37;16.77;;;12.03;;
12631;SDS011;6381;45.748;12.106;2023-02-11T08:45:07;14.07;;;12.37;;
12631;SDS011;6381;45.748;12.106;2023-02-11T08:47:37;14.13;;;12.50;;
12631;SDS011;6381;45.748;12.106;2023-02-11T08:50:08;17.20;;;13.60;;
12631;SDS011;6381;45.748;12.106;2023-02-11T08:52:38;17.97;;;14.93;;
12631;SDS011;6381;45.748;12.106;2023-02-11T08:55:09;19.17;;;15.27;;
12631;SDS011;6381;45.748;12.106;2023-02-11T08:57:38;18.47;;;14.07;;
12631;SDS011;6381;45.748;12.106;2023-02-11T09:00:08;15.00;;;12.40;;
12631;SDS011;6381;45.748;12.106;2023-02-11T09:02:38;16.60;;;14.07;;
12631;SDS011;6381;45.748;12.106;2023-02-11T09:05:09;19.13;;;15.33;;
12631;SDS011;6381;45.748;12.106;2023-02-11T09:07:39;17.83;;;15.27;;
12631;SDS011;6381;45.748;12.106;2023-02-11T09:10:08;16.53;;;13.70;;
12631;SDS011;6381;45.748;12.106;2023-02-11T09:12:38;20.27;;;14.53;;
12631;SDS011;6381;45.748;12.106;2023-02-11T09:15:07;17.13;;;14.50;;
12631;SDS011;6381;45.748;12.106;2023-02-11T09:17:37;20.43;;;14.47;;
12631;SDS011;6381;45.748;12.106;2023-02-11T09:20:06;17.03;;;14.40;;
12631;SDS011;6381;45.748;12.106;2023-02-11T09:22:38;15.97;;;13.40;;
12631;SDS011;6381;45.748;12.106;2023-02-11T09:25:07;16.87;;;13.73;;
12631;SDS011;6381;45.748;12.106;2023-02-11T09:27:37;14.43;;;12.77;;
12631;SDS011;6381;45.748;12.106;2023-02-11T09:30:06;15.33;;;13.73;;
12631;SDS011;6381;45.748;12.106;2023-02-11T09:32:36;17.23;;;13.43;;
12631;SDS011;6381;45.748;12.106;2023-02-11T09:35:06;16.67;;;12.20;;
12631;SDS011;6381;45.748;12.106;2023-02-11T09:37:37;12.80;;;11.00;;
12631;SDS011;6381;45.748;12.106;2023-02-11T09:40:07;12.83;;;10.30;;
12631;SDS011;6381;45.748;12.106;2023-02-11T09:42:39;12.53;;;10.80;;
12631;SDS011;6381;45.748;12.106;2023-02-11T09:45:14;11.00;;;9.73;;
12631;SDS011;6381;45.748;12.106;2023-02-11T09:47:50;14.23;;;11.27;;
12631;SDS011;6381;45.748;12.106;2023-02-11T09:50:25;12.00;;;10.40;;
12631;SDS011;6381;45.748;12.106;2023-02-11T09:53:01;11.43;;;10.27;;
12631;SDS011;6381;45.748;12.106;2023-02-11T09:55:33;13.57;;;10.07;;
12631;SDS011;6381;45.748;12.106;2023-02-11T09:58:10;14.47;;;10.17;;
12631;SDS011;6381;45.748;12.106;2023-02-11T10:00:42;13.47;;;10.67;;
12631;SDS011;6381;45.748;12.106;2023-02-11T10:06:34;11.83;;;10.63;;
12631;SDS011;6381;45.748;12.106;2023-02-11T10:09:19;11.83;;;10.53;;
12631;SDS011;6381;45.748;12.106;2023-02-11T10:12:19;15.40;;;13.07;;
12631;SDS011;6381;45.748;12.106;2023-02-11T10:15:07;16.67;;;13.40;;
12631;SDS011;6381;45.748;12.106;2023-02-11T10:17:53;19.57;;;15.27;;
12631;SDS011;6381;45.748;12.106;2023-02-11T10:20:33;16.63;;;14.83;;
12631;SDS011;6381;45.748;12.106;2023-02-11T10:23:07;18.30;;;14.83;;
12631;SDS011;6381;45.748;12.106;2023-02-11T10:25:48;16.07;;;14.30;;
12631;SDS011;6381;45.748;12.106;2023-02-11T10:28:21;18.27;;;14.97;;
12631;SDS011;6381;45.748;12.106;2023-02-11T10:30:55;34.20;;;26.47;;
12631;SDS011;6381;45.748;12.106;2023-02-11T10:33:28;18.93;;;16.17;;
12631;SDS011;6381;45.748;12.106;2023-02-11T10:36:01;18.87;;;16.67;;
12631;SDS011;6381;45.748;12.106;2023-02-11T10:38:32;21.57;;;16.23;;
12631;SDS011;6381;45.748;12.106;2023-02-11T10:41:04;18.63;;;15.73;;
12631;SDS011;6381;45.748;12.106;2023-02-11T10:43:34;21.27;;;16.33;;
12631;SDS011;6381;45.748;12.106;2023-02-11T10:46:04;19.50;;;16.63;;
12631;SDS011;6381;45.748;12.106;2023-02-11T10:48:38;20.80;;;15.67;;
12631;SDS011;6381;45.748;12.106;2023-02-11T10:51:14;19.70;;;15.87;;
12631;SDS011;6381;45.748;12.106;2023-02-11T10:53:46;18.50;;;15.23;;
12631;SDS011;6381;45.748;12.106;2023-02-11T10:56:24;18.53;;;16.53;;
12631;SDS011;6381;45.748;12.106;2023-02-11T10:58:57;19.90;;;16.67;;
12631;SDS011;6381;45.748;12.106;2023-02-11T11:01:38;21.77;;;15.30;;
12631;SDS011;6381;45.748;12.106;2023-02-11T11:04:25;18.83;;;16.20;;
12631;SDS011;6381;45.748;12.106;2023-02-11T11:07:12;19.97;;;16.53;;
12631;SDS011;6381;45.748;12.106;2023-02-11T11:09:49;20.50;;;17.77;;
12631;SDS011;6381;45.748;12.106;2023-02-11T11:12:25;19.43;;;17.13;;
12631;SDS011;6381;45.748;12.106;2023-02-11T11:15:15;22.37;;;19.97;;
12631;SDS011;6381;45.748;12.106;2023-02-11T11:17:48;20.37;;;17.73;;
12631;SDS011;6381;45.748;12.106;2023-02-11T11:20:18;36.40;;;32.50;;
12631;SDS011;6381;45.748;12.106;2023-02-11T11:22:51;24.03;;;18.80;;
12631;SDS011;6381;45.748;12.106;2023-02-11T11:25:36;20.97;;;17.90;;
12631;SDS011;6381;45.748;12.106;2023-02-11T11:28:15;23.27;;;18.57;;
12631;SDS011;6381;45.748;12.106;2023-02-11T11:30:51;23.03;;;17.77;;
12631;SDS011;6381;45.748;12.106;2023-02-11T11:33:24;21.73;;;19.40;;
12631;SDS011;6381;45.748;12.106;2023-02-11T11:35:56;22.40;;;20.00;;
12631;SDS011;6381;45.748;12.106;2023-02-11T11:38:28;23.37;;;18.90;;
12631;SDS011;6381;45.748;12.106;2023-02-11T11:41:16;22.63;;;19.40;;
12631;SDS011;6381;45.748;12.106;2023-02-11T11:43:59;25.13;;;19.80;;
12631;SDS011;6381;45.748;12.106;2023-02-11T11:46:33;25.43;;;20.83;;
12631;SDS011;6381;45.748;12.106;2023-02-11T11:49:06;23.93;;;20.80;;
12631;SDS011;6381;45.748;12.106;2023-02-11T11:51:47;22.43;;;19.63;;
12631;SDS011;6381;45.748;12.106;2023-02-11T11:54:21;26.20;;;20.13;;
12631;SDS011;6381;45.748;12.106;2023-02-11T11:56:55;27.20;;;20.47;;
12631;SDS011;6381;45.748;12.106;2023-02-11T11:59:31;23.47;;;18.77;;
12631;SDS011;6381;45.748;12.106;2023-02-11T12:02:14;20.80;;;18.27;;
12631;SDS011;6381;45.748;12.106;2023-02-11T12:05:02;22.83;;;17.87;;
12631;SDS011;6381;45.748;12.106;2023-02-11T12:07:41;22.60;;;19.60;;
12631;SDS011;6381;45.748;12.106;2023-02-11T12:10:30;21.43;;;18.37;;
12631;SDS011;6381;45.748;12.106;2023-02-11T12:13:15;22.47;;;17.80;;
12631;SDS011;6381;45.748;12.106;2023-02-11T12:15:56;21.33;;;18.77;;
12631;SDS011;6381;45.748;12.106;2023-02-11T12:18:40;21.10;;;18.83;;
12631;SDS011;6381;45.748;12.106;2023-02-11T12:21:26;20.13;;;18.03;;
12631;SDS011;6381;45.748;12.106;2023-02-11T12:24:06;25.10;;;18.93;;
12631;SDS011;6381;45.748;12.106;2023-02-11T12:26:50;20.83;;;18.47;;
12631;SDS011;6381;45.748;12.106;2023-02-11T12:29:27;24.73;;;17.73;;
12631;SDS011;6381;45.748;12.106;2023-02-11T12:32:07;22.37;;;17.83;;
12631;SDS011;6381;45.748;12.106;2023-02-11T12:38:02;26.23;;;19.00;;
12631;SDS011;6381;45.748;12.106;2023-02-11T12:40:52;20.70;;;18.47;;
12631;SDS011;6381;45.748;12.106;2023-02-11T12:43:29;20.60;;;18.40;;
12631;SDS011;6381;45.748;12.106;2023-02-11T12:46:07;20.10;;;17.07;;
12631;SDS011;6381;45.748;12.106;2023-02-11T12:49:02;28.83;;;19.57;;
12631;SDS011;6381;45.748;12.106;2023-02-11T12:51:59;24.13;;;18.20;;
12631;SDS011;6381;45.748;12.106;2023-02-11T12:54:47;23.97;;;18.57;;
12631;SDS011;6381;45.748;12.106;2023-02-11T12:57:23;24.07;;;19.53;;
12631;SDS011;6381;45.748;12.106;2023-02-11T12:59:56;23.97;;;19.37;;
12631;SDS011;6381;45.748;12.106;2023-02-11T13:02:33;25.17;;;20.83;;
12631;SDS011;6381;45.748;12.106;2023-02-11T13:05:15;24.77;;;21.03;;
12631;SDS011;6381;45.748;12.106;2023-02-11T13:07:51;25.13;;;20.97;;
12631;SDS011;6381;45.748;12.106;2023-02-11T13:10:25;23.87;;;19.40;;
12631;SDS011;6381;45.748;12.106;2023-02-11T13:12:57;23.23;;;19.57;;
12631;SDS011;6381;45.748;12.106;2023-02-11T13:15:49;24.17;;;19.37;;
12631;SDS011;6381;45.748;12.106;2023-02-11T13:18:27;24.00;;;19.77;;
12631;SDS011;6381;45.748;12.106;2023-02-11T13:24:07;21.93;;;18.73;;
12631;SDS011;6381;45.748;12.106;2023-02-11T13:26:44;23.93;;;18.07;;
12631;SDS011;6381;45.748;12.106;2023-02-11T13:29:22;21.90;;;18.60;;
12631;SDS011;6381;45.748;12.106;2023-02-11T13:32:05;25.40;;;19.57;;
12631;SDS011;6381;45.748;12.106;2023-02-11T13:34:55;23.30;;;18.80;;
12631;SDS011;6381;45.748;12.106;2023-02-11T13:37:28;22.87;;;19.97;;
12631;SDS011;6381;45.748;12.106;2023-02-11T13:40:04;20.47;;;17.77;;
12631;SDS011;6381;45.748;12.106;2023-02-11T13:42:46;20.53;;;17.77;;
12631;SDS011;6381;45.748;12.106;2023-02-11T13:45:22;22.57;;;19.47;;
12631;SDS011;6381;45.748;12.106;2023-02-11T13:47:57;21.73;;;18.50;;
12631;SDS011;6381;45.748;12.106;2023-02-11T13:50:31;22.90;;;18.80;;
12631;SDS011;6381;45.748;12.106;2023-02-11T13:53:06;21.37;;;18.17;;
12631;SDS011;6381;45.748;12.106;2023-02-11T13:55:36;22.03;;;18.03;;
12631;SDS011;6381;45.748;12.106;2023-02-11T13:58:32;19.93;;;17.43;;
12631;SDS011;6381;45.748;12.106;2023-02-11T14:01:06;20.10;;;17.73;;
12631;SDS011;6381;45.748;12.106;2023-02-11T14:03:36;22.30;;;19.33;;
12631;SDS011;6381;45.748;12.106;2023-02-11T14:06:25;23.20;;;19.73;;
12631;SDS011;6381;45.748;12.106;2023-02-11T14:09:33;25.73;;;20.27;;
12631;SDS011;6381;45.748;12.106;2023-02-11T14:12:25;19.60;;;17.50;;
12631;SDS011;6381;45.748;12.106;2023-02-11T14:17:50;21.83;;;17.87;;
12631;SDS011;6381;45.748;12.106;2023-02-11T14:20:40;20.93;;;18.60;;
12631;SDS011;6381;45.748;12.106;2023-02-11T14:23:21;20.97;;;18.53;;
12631;SDS011;6381;45.748;12.106;2023-02-11T14:25:57;21.47;;;17.97;;
12631;SDS011;6381;45.748;12.106;2023-02-11T14:28:45;20.87;;;18.50;;
12631;SDS011;6381;45.748;12.106;2023-02-11T14:31:20;22.63;;;18.03;;
12631;SDS011;6381;45.748;12.106;2023-02-11T14:34:01;21.97;;;19.53;;
12631;SDS011;6381;45.748;12.106;2023-02-11T14:36:56;21.47;;;18.37;;
12631;SDS011;6381;45.748;12.106;2023-02-11T14:39:45;21.03;;;17.37;;
12631;SDS011;6381;45.748;12.106;2023-02-11T14:42:26;20.17;;;17.67;;
12631;SDS011;6381;45.748;12.106;2023-02-11T14:44:58;20.93;;;17.17;;
12631;SDS011;6381;45.748;12.106;2023-02-11T14:47:35;20.40;;;17.40;;
12631;SDS011;6381;45.748;12.106;2023-02-11T14:50:13;18.30;;;16.43;;
12631;SDS011;6381;45.748;12.106;2023-02-11T14:52:46;19.60;;;17.20;;
12631;SDS011;6381;45.748;12.106;2023-02-11T14:55:20;19.83;;;17.67;;
12631;SDS011;6381;45.748;12.106;2023-02-11T14:58:10;19.20;;;17.07;;
12631;SDS011;6381;45.748;12.106;2023-02-11T15:00:47;21.80;;;17.90;;
12631;SDS011;6381;45.748;12.106;2023-02-11T15:03:25;20.87;;;17.83;;
12631;SDS011;6381;45.748;12.106;2023-02-11T15:05:57;20.07;;;17.23;;
12631;SDS011;6381;45.748;12.106;2023-02-11T15:08:28;22.53;;;18.87;;
12631;SDS011;6381;45.748;12.106;2023-02-11T15:10:59;19.13;;;17.13;;
12631;SDS011;6381;45.748;12.106;2023-02-11T15:13:32;22.70;;;18.00;;
12631;SDS011;6381;45.748;12.106;2023-02-11T15:16:04;20.03;;;16.10;;
12631;SDS011;6381;45.748;12.106;2023-02-11T15:18:38;21.30;;;18.43;;
12631;SDS011;6381;45.748;12.106;2023-02-11T15:21:09;19.17;;;17.20;;
12631;SDS011;6381;45.748;12.106;2023-02-11T15:23:39;22.93;;;18.50;;